Terminal Aerodrome Forecast
Issued by NWS La Crosse, WI

Home | Current Version | Previous Version | Text Only | Print | Product List | Glossary On
Versions: 1 2 3 4 5 6 7 8 9 10 11 12 13 14 15 16 17 18 19
000
FTUS43 KARX 161720
TAFRST
TAF
KRST 161720Z 1618/1718 16022G31KT P6SM OVC100
     FM170000 15018G26KT P6SM -RA OVC040
     FM170500 13018KT P6SM -RA OVC015
      TEMPO 1706/1708 4SM -RA OVC010
     FM170900 28016G22KT P6SM OVC012
     FM171600 31014KT P6SM SCT020=

USA.gov is the U.S. government's official web portal to all federal, state and local government web resources and services.